createdAt,value
2023-05-14T08:09:05.335Z,144424.25
2023-05-14T08:14:08.777Z,144381.88
2023-05-14T08:19:14.277Z,144451.69
2023-05-14T08:24:20.076Z,144546.38
2023-05-14T08:29:28.133Z,144538.91
2023-05-14T08:34:31.639Z,144571.31
2023-05-14T08:39:36.382Z,144610.00
2023-05-14T08:44:46.774Z,144688.50
2023-05-14T08:49:53.566Z,144734.69
2023-05-14T08:55:00.145Z,144813.28
2023-05-14T09:00:08.252Z,144840.72
2023-05-14T09:05:12.334Z,144931.81
2023-05-14T09:10:18.373Z,145035.44
2023-05-14T09:15:21.678Z,145076.63
2023-05-14T09:20:25.877Z,145154.09
2023-05-14T09:25:32.006Z,145209.03
2023-05-14T09:30:37.068Z,145386.47
2023-05-14T09:35:43.309Z,145427.72
2023-05-14T09:40:47.950Z,145310.22
2023-05-14T09:45:51.368Z,145177.81
2023-05-14T09:50:54.741Z,145170.28
2023-05-14T09:55:59.449Z,145119.06
2023-05-14T10:01:03.211Z,145000.47
2023-05-14T10:06:07.590Z,144961.78
2023-05-14T10:11:14.272Z,145032.91
2023-05-14T10:16:21.118Z,144914.34
2023-05-14T10:21:24.689Z,144926.84
2023-05-14T10:26:29.606Z,145017.97
2023-05-14T10:31:53.641Z,145026.69
2023-05-14T10:36:59.891Z,145149.09
2023-05-14T10:42:05.440Z,145244.00
2023-05-14T10:47:08.756Z,145277.75
2023-05-14T10:52:12.837Z,145311.47
2023-05-14T10:57:18.588Z,145246.50
2023-05-14T11:02:22.941Z,145277.75
2023-05-14T11:07:28.946Z,145342.72
2023-05-14T11:12:34.602Z,145230.25
2023-05-14T11:17:38.699Z,145232.75
2023-05-14T11:22:43.058Z,145295.25
2023-05-14T11:27:48.227Z,145241.53
2023-05-14T11:32:51.882Z,145308.97
2023-05-14T11:37:55.425Z,145307.72
2023-05-14T11:43:00.150Z,145237.78
2023-05-14T11:48:03.734Z,145337.72
2023-05-14T11:53:07.162Z,145409.00
2023-05-14T11:58:11.895Z,145345.22
2023-05-14T12:03:15.652Z,145295.25
2023-05-14T12:08:22.370Z,145152.84
2023-05-14T12:13:31.960Z,145080.38
2023-05-14T12:18:35.614Z,145102.88
2023-05-14T12:23:39.549Z,145046.66
2023-05-14T12:28:44.189Z,145127.84
2023-05-14T12:33:47.508Z,145207.81
2023-05-14T12:38:50.898Z,145306.47
2023-05-14T12:43:55.513Z,145221.53
2023-05-14T12:48:58.893Z,145295.25
2023-05-14T12:54:04.454Z,145295.25
2023-05-14T12:59:09.460Z,145388.97
2023-05-14T13:04:13.786Z,145494.06
2023-05-14T13:09:17.029Z,145467.78
2023-05-14T13:14:21.630Z,145345.22
2023-05-14T13:19:25.007Z,145232.75
2023-05-14T13:24:28.436Z,145212.78
2023-05-14T13:29:33.041Z,145194.03
2023-05-14T13:34:36.520Z,145152.84
2023-05-14T13:39:41.141Z,145144.06
2023-05-14T13:44:46.205Z,145167.78
2023-05-14T19:17:32.751Z,143875.31
2023-05-14T19:22:37.464Z,143809.38
2023-05-14T19:27:45.627Z,143774.56
2023-05-14T19:32:51.845Z,143734.81
2023-05-14T19:38:20.916Z,143702.44
2023-05-14T19:43:25.441Z,143707.44
2023-05-14T19:48:33.543Z,143699.97
2023-05-14T19:53:36.952Z,143687.56
2023-05-14T19:58:40.268Z,143631.63
2023-05-14T20:03:45.256Z,143593.13
2023-05-14T20:08:48.916Z,143583.16
2023-05-14T20:13:53.618Z,143558.31
2023-05-14T20:19:01.574Z,143537.22
2023-05-14T20:24:05.240Z,143532.22
2023-05-14T20:29:10.892Z,143509.88
2023-05-14T20:34:19.285Z,143487.53
2023-05-14T20:39:22.784Z,143504.88
2023-05-14T20:44:26.228Z,143493.72
2023-05-14T20:49:32.809Z,143440.31
2023-05-14T20:54:36.590Z,143391.88
2023-05-14T20:59:40.210Z,143359.59
2023-05-14T21:04:45.369Z,143306.22
2023-05-14T21:09:52.290Z,143288.88
2023-05-14T21:14:55.908Z,143240.47
2023-05-14T21:20:03.673Z,143221.84
2023-05-14T21:25:11.017Z,143192.06
2023-05-14T21:30:14.942Z,143182.16
2023-05-14T21:35:19.994Z,143164.78
2023-05-14T21:40:23.836Z,143180.94
2023-05-14T21:45:27.502Z,143180.94
2023-05-14T21:50:32.582Z,143148.69
2023-05-14T21:55:36.227Z,143120.16
